Hovedside
METAR-TAF:

METAR-TAF

Lufthavner :

Grootfontein, Namibia

breddegrad: 19-36S, lengdegrad: 018-07E, høyde over havet: 1411 m

Gjeldene værobservasjon

Denne rapporten ble laget for 31 minutter siden, klokken 13:00 UTC
Vind 2 kt fra Nord-nordvest
Temperatur 28°C
Luftfuktighet 10%
Trykk 1023 hPa
Sikt 10 km eller mer
ingen skyer under 1500 m og ingen bygeskyer

METAR: FYGF 181300Z 33002KT CAVOK 28/M06 Q1023

Tid: 15:31 (13:31 UTC)

Varsel

Denne rapporten ble laget for 2 timer og 31 minutter siden, klokken 11:00 UTC
Varsel gyldig fra 18. klokken 12 UTC til 18. klokken 21 UTC
Vind 6 kt fra Nord
Sikt 10 km eller mer
ingen skyer under 1500 m og ingen bygeskyer

TAF: FYGF 181100Z 1812/1821 36006KT CAVOK

Værobservasjoner og værvarsel for over 4000 flyplasser (METAR- og TAF-rapporter).

Tilgjengelige stasjoner er representert av de røde og gule prikkene på kartet.

Hold musepekeren over prikken for å se navnet på stasjonen.

Klikk så for å se værobservasjoner og -varsler.

For å forandre kartet kan du klikke på den grønne knappen med svart kryss for å zoome inn, på den grønne knappen med strek for å zoome ut, eller på de grønne pilene for å se tilstøtende kart.


METAR-TAF: